Nearby METAR Reports

 

KVSF - Springfield, Vermont, USA
Distance from station: WNW 17mi, 27km
Updated: Sat, Sep-22-2018 5:54pm EDT
Clear
Clear
 Wind from calm
Wind: Calm
Temperature: 57°F , 14°C
Dew Point: 43°F , 6°C
Humidity: 59%
Barometer: 30.19 inHg , 1022.4 hPa
Clouds: Clear
Visibility: 10 miles , 16 km
2018/09/22 21:54 KVSF 222154Z AUTO 00000KT 10SM CLR 14/06 A3019 RMK AO2 SLP225 T01440061
KLEB - Lebanon, New Hampshire, USA
Distance from station: NNW 24mi, 39km
Updated: Sat, Sep-22-2018 5:53pm EDT
Clear
Clear
 Wind from WNW
Wind: WNW 5 mph , 7 km/h
Temperature: 61°F , 16°C
Dew Point: 39°F , 4°C
Humidity: 45%
Barometer: 30.18 inHg , 1022 hPa
Clouds: Clear
Visibility: 10 miles , 16 km
2018/09/22 21:53 KLEB 222153Z 30004KT 10SM CLR 16/04 A3018 RMK AO2 SLP216 T01560039
 
KEEN - Keene/Dillant, New Hampshire, USA
Distance from station: S 28mi, 45km
Updated: Sat, Sep-22-2018 5:56pm EDT
Clear
Clear
 Wind from calm
Wind: Calm
Barometer: 30.18 inHg , 1022 hPa
Clouds: Clear
Visibility: 10 miles , 16 km
2018/09/22 21:56 KEEN 222156Z AUTO 00000KT 10SM CLR A3018 RMK AO2 SLPNO FZRANO $
KAFN - Jaffrey, New Hampshire, USA
Distance from station: SSE 35mi, 57km
Updated: Sat, Sep-22-2018 5:52pm EDT
Clear
Clear
 Wind from varies
Wind: varies 5 mph , 7 km/h
Temperature: 57°F , 14°C
Dew Point: 45°F , 7°C
Humidity: 63%
Barometer: 30.18 inHg , 1022 hPa
Clouds: Clear
Visibility: 10 miles , 16 km
2018/09/22 21:52 KAFN 222152Z AUTO VRB04KT 10SM CLR 14/07 A3018 RMK AO2 SLP224 T01440067
 
KCON - Concord, New Hampshire, USA
Distance from station: E 35mi, 57km
Updated: Sat, Sep-22-2018 5:51pm EDT
Clear
Clear
 Wind from NW
Wind: NW 6 mph , 9 km/h
Temperature: 61°F , 16°C
Dew Point: 41°F , 5°C
Humidity: 48%
Barometer: 30.18 inHg , 1022 hPa
Clouds: Clear
Visibility: 10 miles , 16 km
2018/09/22 21:51 KCON 222151Z AUTO 32005KT 10SM CLR 16/05 A3018 RMK AO2 SLP218 T01560050
K1P1 - Plymouth, New Hampshire, USA
Distance from station: NNE 41mi, 66km
Updated: Sat, Sep-22-2018 6:35pm EDT
Clear
Clear
 Wind from calm
Wind: Calm
Temperature: 55°F , 13°C
Dew Point: 41°F , 5°C
Humidity: 59%
Barometer: 30.18 inHg , 1022 hPa
Clouds: Clear
Visibility: 10 miles , 16 km
2018/09/22 22:35 K1P1 222235Z AUTO 00000KT 10SM CLR 13/05 A3018 RMK AO2 T01250054
 
KRUT - Rutland State, Vermont, USA
Distance from station: WNW 41mi, 66km
Updated: Sat, Sep-22-2018 5:56pm EDT
Clear
Clear
 Wind from NW
Wind: NW 5 mph , 7 km/h
Temperature: 55°F , 13°C
Dew Point: 43°F , 6°C
Humidity: 63%
Barometer: 30.21 inHg , 1023 hPa
Clouds: Clear
Visibility: 10 miles , 16 km
2018/09/22 21:56 KRUT 222156Z AUTO 31004KT 10SM CLR 13/06 A3021 RMK AO2 SLP247 T01280056 $
KLCI - Laconia Muni, New Hampshire, USA
Distance from station: ENE 44mi, 70km
Updated: Sat, Sep-22-2018 5:56pm EDT
Clear
Clear
 Wind from W
Wind: W 5 mph , 7 km/h
Temperature: 57°F , 14°C
Dew Point: 41°F , 5°C
Humidity: 55%
Barometer: 30.17 inHg , 1021.7 hPa
Clouds: Clear
Visibility: 10 miles , 16 km
2018/09/22 21:56 KLCI 222156Z AUTO 28004KT 10SM CLR 14/05 A3017 RMK AO2 SLP231 T01440050 PWINO
 
KMHT - Manchester, New Hampshire, USA
Distance from station: ESE 46mi, 73km
Updated: Sat, Sep-22-2018 5:53pm EDT
Overcast
Overcast
 Wind from NW
Wind: NW 9 mph , 15 km/h
Temperature: 63°F , 17°C
Dew Point: 39°F , 4°C
Humidity: 42%
Barometer: 30.16 inHg , 1021.3 hPa
Clouds: Overcast
Visibility: 10 miles , 16 km
Cloud details: Overcast 22000 ft
2018/09/22 21:53 KMHT 222153Z 31008KT 10SM OVC220 17/04 A3016 RMK AO2 SLP223 T01670044
KASH - Nashua/Boire Fld, New Hampshire, USA
Distance from station: SE 49mi, 79km
Updated: Sat, Sep-22-2018 5:56pm EDT
Clear
Clear
 Wind from NNW
Wind: NNW 8 mph , 13 km/h
Temperature: 61°F , 16°C
Dew Point: 45°F , 7°C
Humidity: 55%
Barometer: 30.17 inHg , 1021.7 hPa
Clouds: Clear
Visibility: 10 miles , 16 km
2018/09/22 21:56 KASH 222156Z 33007KT 10SM CLR 16/07 A3017 RMK AO2 SLP226 T01610067 PNO $
 
KORE - Orange, Massachusetts, USA
Distance from station: S 50mi, 81km
Updated: Sat, Sep-22-2018 5:52pm EDT
Clear
Clear
 Wind from N
Wind: N 5 mph , 7 km/h
Temperature: 63°F , 17°C
Dew Point: 45°F , 7°C
Humidity: 52%
Barometer: 30.19 inHg , 1022.4 hPa
Clouds: Clear
Visibility: 10 miles , 16 km
2018/09/22 21:52 KORE 222152Z AUTO 35004KT 10SM CLR 17/07 A3019 RMK AO2 SLP222 T01720067